Time;durP1;ratioP1;P1;durP2;ratioP2;P2;SDS_P1;SDS_P2;PMS_P1;PMS_P2;Temp;Humidity;BMP_temperature;BMP_pressure;BME280_temperature;BME280_humidity;BME280_pressure;Samples;Min_cycle;Max_cycle;Signal;HPM_P1;HPM_P2
2023/03/26 00:02:11;;;;;;;11.45;2.90;;;7.00;99.90;;;;;;5032648;28;20482;-50
2023/03/26 00:04:37;;;;;;;16.73;4.05;;;7.00;99.90;;;;;;5035842;28;20519;-51
2023/03/26 00:07:03;;;;;;;15.50;3.45;;;6.90;99.90;;;;;;5034562;28;20523;-48
2023/03/26 00:09:29;;;;;;;10.32;2.67;;;6.80;99.90;;;;;;5035319;28;20053;-44
2023/03/26 00:11:56;;;;;;;11.95;3.25;;;6.80;99.90;;;;;;5035095;28;20106;-47
2023/03/26 00:14:21;;;;;;;13.63;3.45;;;6.70;99.90;;;;;;5033405;28;20057;-47
2023/03/26 00:16:48;;;;;;;9.57;2.85;;;6.70;99.90;;;;;;5026296;28;20052;-44
2023/03/26 00:19:14;;;;;;;15.25;3.58;;;6.60;99.90;;;;;;5033886;28;20119;-51
2023/03/26 00:21:40;;;;;;;11.02;3.30;;;6.60;99.90;;;;;;5036351;28;20048;-50
2023/03/26 00:24:13;;;;;;;17.30;5.35;;;6.60;99.90;;;;;;5022527;28;20052;-45
2023/03/26 00:26:39;;;;;;;15.40;3.45;;;6.50;99.90;;;;;;5036099;28;20605;-48
2023/03/26 00:29:08;;;;;;;16.00;3.58;;;6.50;99.90;;;;;;5034102;28;20495;-42
2023/03/26 00:31:36;;;;;;;15.48;3.72;;;6.50;99.90;;;;;;5036687;28;20516;-45
2023/03/26 00:34:04;;;;;;;16.27;5.43;;;6.50;99.90;;;;;;5036607;28;20041;-45
2023/03/26 00:36:30;;;;;;;17.70;5.85;;;6.50;99.90;;;;;;5036255;28;20048;-48
2023/03/26 00:38:56;;;;;;;15.93;5.80;;;6.50;99.90;;;;;;5034691;28;20291;-43
2023/03/26 00:41:24;;;;;;;17.48;5.97;;;6.50;99.90;;;;;;5035228;28;20057;-40
2023/03/26 00:43:54;;;;;;;20.80;5.10;;;6.50;99.90;;;;;;5029966;28;20053;-43
2023/03/26 00:46:21;;;;;;;14.57;3.70;;;6.50;99.90;;;;;;5028298;28;20363;-45
2023/03/26 00:48:47;;;;;;;12.20;4.30;;;6.50;99.90;;;;;;5036294;28;20048;-47
2023/03/26 00:51:14;;;;;;;9.13;3.67;;;6.50;99.90;;;;;;5035808;28;20099;-42
2023/03/26 00:53:41;;;;;;;16.58;3.47;;;6.50;99.90;;;;;;5036735;28;20392;-51
2023/03/26 00:56:07;;;;;;;17.27;4.75;;;6.50;99.90;;;;;;5036147;28;20064;-49
2023/03/26 00:58:33;;;;;;;14.32;3.70;;;6.50;99.90;;;;;;5035627;28;20052;-44
2023/03/26 01:01:02;;;;;;;13.85;4.10;;;6.40;99.90;;;;;;5020868;28;20045;-41
2023/03/26 01:03:29;;;;;;;17.92;4.05;;;6.40;99.90;;;;;;5027425;28;20072;-39
2023/03/26 01:06:11;;;;;;;17.40;3.90;;;6.40;99.90;;;;;;5010824;28;20076;-51
2023/03/26 01:08:46;;;;;;;17.83;4.10;;;6.40;99.90;;;;;;5035819;28;20052;-42
2023/03/26 01:11:16;;;;;;;16.27;4.72;;;6.40;99.90;;;;;;5034872;28;20593;-54
2023/03/26 01:13:48;;;;;;;17.65;5.05;;;6.40;99.90;;;;;;5035822;28;20107;-47
2023/03/26 01:16:25;;;;;;;18.10;4.75;;;6.40;99.90;;;;;;5035481;28;20545;-49
2023/03/26 01:18:52;;;;;;;23.25;5.15;;;6.40;99.90;;;;;;5035127;28;20750;-41
2023/03/26 01:21:22;;;;;;;20.25;5.03;;;6.40;99.90;;;;;;5034584;28;20090;-44
2023/03/26 01:24:01;;;;;;;18.65;5.13;;;6.50;99.90;;;;;;5035268;28;20465;-47
2023/03/26 01:26:45;;;;;;;17.88;5.43;;;6.40;99.90;;;;;;5035502;28;20056;-44
2023/03/26 01:29:32;;;;;;;22.52;5.57;;;6.40;99.90;;;;;;5035181;28;20049;-41
2023/03/26 01:32:15;;;;;;;18.50;4.90;;;6.40;99.90;;;;;;5042523;28;20086;-43
2023/03/26 01:34:56;;;;;;;14.18;4.82;;;6.30;99.90;;;;;;5040091;28;20049;-46
2023/03/26 01:37:31;;;;;;;14.20;5.72;;;6.30;99.90;;;;;;5040065;28;20049;-49
2023/03/26 01:40:04;;;;;;;15.60;4.88;;;6.20;99.90;;;;;;5039239;28;20055;-46
2023/03/26 01:42:36;;;;;;;10.45;4.22;;;6.20;99.90;;;;;;5030751;28;20060;-40
2023/03/26 01:45:16;;;;;;;19.75;5.53;;;6.10;99.90;;;;;;5032937;28;20073;-46
2023/03/26 01:47:44;;;;;;;15.00;4.53;;;6.10;99.90;;;;;;5030500;28;20056;-49
2023/03/26 01:50:10;;;;;;;17.38;4.80;;;6.10;99.90;;;;;;5038378;28;20220;-50
2023/03/26 01:52:36;;;;;;;18.25;5.47;;;6.10;99.90;;;;;;5039652;28;20045;-45
2023/03/26 01:55:03;;;;;;;20.67;4.82;;;6.10;99.90;;;;;;5038017;28;20056;-46
2023/03/26 01:57:50;;;;;;;16.58;4.93;;;6.20;99.90;;;;;;5038409;28;20122;-41
2023/03/26 02:00:45;;;;;;;18.10;5.03;;;6.20;99.90;;;;;;5037705;28;20048;-42
2023/03/26 02:03:16;;;;;;;13.07;4.45;;;6.20;99.90;;;;;;5023812;28;20414;-47
2023/03/26 02:06:25;;;;;;;10.45;4.05;;;6.30;99.90;;;;;;5037606;28;20060;-48
2023/03/26 02:08:56;;;;;;;15.07;3.88;;;6.30;99.90;;;;;;5029134;28;20058;-45
2023/03/26 02:11:22;;;;;;;12.55;3.95;;;6.40;99.90;;;;;;5033247;28;20053;-45
2023/03/26 02:13:49;;;;;;;14.90;3.88;;;6.40;99.90;;;;;;5033501;28;20059;-52
2023/03/26 02:16:16;;;;;;;19.30;4.30;;;6.40;99.90;;;;;;5025548;28;20072;-48
2023/03/26 02:18:46;;;;;;;18.70;4.18;;;6.40;99.90;;;;;;5038734;28;20049;-48
2023/03/26 02:21:19;;;;;;;15.32;5.32;;;6.40;99.90;;;;;;5037060;28;20431;-43
2023/03/26 02:23:45;;;;;;;14.27;3.97;;;6.50;99.90;;;;;;5039589;28;20049;-43
2023/03/26 02:26:14;;;;;;;18.17;4.30;;;6.60;99.90;;;;;;5039859;28;20052;-41
2023/03/26 02:28:40;;;;;;;18.80;4.97;;;6.60;99.90;;;;;;5038284;28;20059;-52
2023/03/26 02:31:08;;;;;;;14.75;3.75;;;6.60;99.90;;;;;;5020575;28;20529;-41
2023/03/26 02:33:34;;;;;;;14.00;3.95;;;6.60;99.90;;;;;;5039619;28;20088;-46
2023/03/26 02:36:03;;;;;;;14.20;4.72;;;6.60;99.90;;;;;;5038434;28;20048;-45
2023/03/26 02:38:34;;;;;;;13.63;4.53;;;6.60;99.90;;;;;;5037541;28;20044;-42
2023/03/26 02:41:00;;;;;;;21.92;5.75;;;6.60;99.90;;;;;;5038213;28;20410;-38
2023/03/26 02:43:26;;;;;;;18.17;4.78;;;6.60;99.90;;;;;;5019410;28;20302;-46
2023/03/26 02:45:52;;;;;;;13.38;4.05;;;6.60;99.90;;;;;;5018394;28;20081;-44
2023/03/26 02:48:19;;;;;;;18.20;4.43;;;6.60;99.90;;;;;;5032480;28;20053;-43
2023/03/26 02:50:48;;;;;;;13.27;4.15;;;6.50;99.90;;;;;;5037194;28;20488;-41
2023/03/26 02:53:15;;;;;;;18.25;4.43;;;6.40;99.90;;;;;;5037817;28;20072;-51
2023/03/26 02:55:41;;;;;;;16.80;4.47;;;6.40;99.90;;;;;;5029346;28;20053;-39
2023/03/26 02:58:06;;;;;;;15.27;4.25;;;6.40;99.90;;;;;;5034012;28;20439;-46
2023/03/26 03:00:33;;;;;;;20.02;5.05;;;6.40;99.90;;;;;;5032676;28;20053;-47
2023/03/26 03:03:03;;;;;;;16.30;4.35;;;6.40;99.90;;;;;;5022034;28;20138;-41
2023/03/26 03:05:32;;;;;;;19.33;4.45;;;6.40;99.90;;;;;;5036432;28;20499;-42
2023/03/26 03:07:58;;;;;;;10.90;3.97;;;6.40;99.90;;;;;;5035371;28;20178;-45
2023/03/26 03:10:31;;;;;;;15.30;4.47;;;6.40;99.90;;;;;;5036815;28;20080;-41
2023/03/26 03:12:57;;;;;;;19.25;4.03;;;6.40;99.90;;;;;;5037040;28;20084;-48
2023/03/26 03:15:23;;;;;;;17.55;4.05;;;6.40;99.90;;;;;;5037303;28;20128;-45
2023/03/26 03:17:48;;;;;;;16.02;4.80;;;6.40;99.90;;;;;;5031375;28;20075;-44
2023/03/26 03:20:14;;;;;;;18.42;4.18;;;6.30;99.90;;;;;;5028130;28;20479;-49
2023/03/26 03:22:40;;;;;;;20.00;4.28;;;6.20;99.90;;;;;;5037592;28;20487;-50
2023/03/26 03:25:08;;;;;;;16.80;3.88;;;6.20;99.90;;;;;;5037783;28;20048;-46
2023/03/26 03:27:38;;;;;;;17.33;4.47;;;6.20;99.90;;;;;;5036918;28;20552;-43
2023/03/26 03:30:04;;;;;;;20.65;4.80;;;6.20;99.90;;;;;;5051530;28;20059;-41
2023/03/26 03:32:30;;;;;;;18.23;4.78;;;6.20;99.90;;;;;;5029520;28;20335;-45
2023/03/26 03:34:56;;;;;;;16.98;4.07;;;6.20;99.90;;;;;;5037159;28;20048;-46
2023/03/26 03:37:22;;;;;;;19.38;4.18;;;6.30;99.90;;;;;;5037055;28;20562;-44
2023/03/26 03:39:48;;;;;;;16.65;4.40;;;6.30;99.90;;;;;;5036611;28;20044;-49
2023/03/26 03:42:13;;;;;;;17.08;4.22;;;6.20;99.90;;;;;;5036598;28;20057;-51
2023/03/26 03:44:39;;;;;;;20.63;4.13;;;6.30;99.90;;;;;;5037743;28;20419;-54
2023/03/26 03:47:05;;;;;;;19.30;4.72;;;6.30;99.90;;;;;;5037590;28;20156;-40
2023/03/26 03:49:31;;;;;;;14.15;3.47;;;6.30;99.90;;;;;;5036386;28;20275;-45
2023/03/26 03:51:57;;;;;;;14.48;4.30;;;6.30;99.90;;;;;;5034973;28;20055;-44
2023/03/26 03:54:23;;;;;;;22.10;5.20;;;6.30;99.90;;;;;;5037367;28;20045;-38
2023/03/26 03:56:48;;;;;;;18.10;3.78;;;6.30;99.90;;;;;;5037197;28;20057;-45
2023/03/26 03:59:14;;;;;;;25.08;5.40;;;6.30;99.90;;;;;;5036753;28;20159;-53
2023/03/26 04:01:45;;;;;;;19.30;4.53;;;6.30;99.90;;;;;;5030994;28;20134;-53
2023/03/26 04:04:11;;;;;;;18.25;3.80;;;6.30;99.90;;;;;;5029102;28;20225;-46
2023/03/26 04:06:37;;;;;;;15.98;3.90;;;6.30;99.90;;;;;;5034849;28;20057;-46
2023/03/26 04:09:03;;;;;;;17.40;3.75;;;6.40;99.90;;;;;;5036213;28;20051;-42
2023/03/26 04:11:29;;;;;;;19.10;3.95;;;6.40;99.90;;;;;;5036166;28;20040;-45
2023/03/26 04:13:55;;;;;;;17.67;4.38;;;6.30;99.90;;;;;;5036137;28;20574;-43
2023/03/26 04:16:20;;;;;;;14.85;4.00;;;6.30;99.90;;;;;;5036791;28;20408;-45
2023/03/26 04:18:46;;;;;;;14.18;4.40;;;6.30;99.90;;;;;;5036264;28;20463;-48
2023/03/26 04:21:14;;;;;;;17.30;3.90;;;6.30;99.90;;;;;;5022811;28;20092;-47
2023/03/26 04:23:44;;;;;;;21.58;5.85;;;6.30;99.90;;;;;;5036505;28;20045;-51
2023/03/26 04:26:18;;;;;;;18.42;4.78;;;6.20;99.90;;;;;;5036694;28;20056;-48
2023/03/26 04:28:52;;;;;;;16.90;4.47;;;6.10;99.90;;;;;;5035599;28;20045;-53
2023/03/26 04:31:27;;;;;;;10.90;3.70;;;6.10;99.90;;;;;;5035457;28;20057;-41
2023/03/26 04:34:14;;;;;;;14.63;4.20;;;6.10;99.90;;;;;;5033034;28;20049;-43
2023/03/26 04:36:45;;;;;;;15.98;4.10;;;6.10;99.90;;;;;;5035167;28;20053;-49
2023/03/26 04:39:12;;;;;;;16.48;4.60;;;6.10;99.90;;;;;;5035985;28;20147;-42
2023/03/26 04:41:38;;;;;;;17.65;4.15;;;6.10;99.90;;;;;;5035909;28;20072;-37
2023/03/26 04:44:04;;;;;;;14.77;4.00;;;6.10;99.90;;;;;;5029197;28;20057;-45
2023/03/26 04:46:32;;;;;;;16.88;3.90;;;6.10;99.90;;;;;;5030584;28;20350;-48
2023/03/26 04:48:58;;;;;;;16.15;4.60;;;6.10;99.90;;;;;;5035451;28;20045;-38
2023/03/26 04:51:29;;;;;;;15.30;3.92;;;6.10;99.90;;;;;;5021567;28;20290;-49
2023/03/26 04:53:59;;;;;;;18.33;4.53;;;6.10;99.90;;;;;;5035915;28;20048;-49
2023/03/26 04:56:56;;;;;;;14.43;4.03;;;6.10;99.90;;;;;;5034028;28;20071;-49
2023/03/26 04:59:33;;;;;;;13.65;4.13;;;6.10;99.90;;;;;;5035081;28;20116;-48
2023/03/26 05:01:59;;;;;;;16.05;3.90;;;6.10;99.90;;;;;;5034157;28;20060;-48
2023/03/26 05:04:28;;;;;;;13.63;3.60;;;6.10;99.90;;;;;;5034766;28;20049;-49
2023/03/26 05:06:56;;;;;;;15.40;4.30;;;6.10;99.90;;;;;;5035101;28;20515;-45
2023/03/26 05:09:25;;;;;;;15.52;4.18;;;6.10;99.90;;;;;;5035085;28;20049;-47
2023/03/26 05:11:51;;;;;;;16.70;4.60;;;6.10;99.90;;;;;;5034914;28;20044;-44
2023/03/26 05:14:18;;;;;;;19.00;4.18;;;6.10;99.90;;;;;;5032953;28;20498;-48
2023/03/26 05:16:46;;;;;;;15.57;4.38;;;6.10;99.90;;;;;;5021843;28;20051;-54
2023/03/26 05:19:12;;;;;;;18.88;4.78;;;6.10;99.90;;;;;;5029347;28;20102;-47
2023/03/26 05:21:38;;;;;;;25.83;4.45;;;6.10;99.90;;;;;;5035336;28;20390;-40
2023/03/26 05:24:05;;;;;;;14.63;4.72;;;6.10;99.90;;;;;;5035495;28;20297;-45
2023/03/26 05:26:31;;;;;;;17.77;4.43;;;6.10;99.90;;;;;;5025250;28;20595;-45
2023/03/26 05:28:57;;;;;;;12.73;4.68;;;6.10;99.90;;;;;;5031659;28;20080;-46
2023/03/26 05:31:25;;;;;;;19.08;4.65;;;6.10;99.90;;;;;;5034552;28;20477;-47
2023/03/26 05:33:51;;;;;;;18.45;4.47;;;6.10;99.90;;;;;;5030983;28;20049;-41
2023/03/26 05:36:17;;;;;;;22.63;4.50;;;6.10;99.90;;;;;;5035223;28;20478;-44
2023/03/26 05:38:46;;;;;;;19.30;4.53;;;6.10;99.90;;;;;;5034624;28;20049;-53
2023/03/26 05:41:12;;;;;;;16.95;5.50;;;6.10;99.90;;;;;;5034723;28;20064;-47
2023/03/26 05:43:38;;;;;;;24.52;5.32;;;6.20;99.90;;;;;;5035529;28;20135;-44
2023/03/26 05:46:04;;;;;;;23.58;4.75;;;6.20;99.90;;;;;;5034245;28;20086;-45
2023/03/26 05:48:30;;;;;;;18.42;3.80;;;6.10;99.90;;;;;;5034169;28;20045;-47
2023/03/26 05:50:57;;;;;;;15.80;4.32;;;6.20;99.90;;;;;;5033116;28;20056;-42
2023/03/26 05:53:24;;;;;;;21.70;4.65;;;6.20;99.90;;;;;;5034424;28;20144;-43
2023/03/26 05:55:59;;;;;;;15.85;4.00;;;6.20;99.90;;;;;;5034816;28;20052;-51
2023/03/26 05:58:31;;;;;;;22.38;4.68;;;6.20;99.90;;;;;;5027839;28;20108;-50
2023/03/26 06:00:57;;;;;;;18.30;4.10;;;6.20;99.90;;;;;;5028038;28;20567;-46
2023/03/26 06:03:23;;;;;;;21.52;3.67;;;6.20;99.90;;;;;;5034699;28;20091;-43
2023/03/26 06:05:49;;;;;;;19.15;4.85;;;6.30;99.90;;;;;;5034810;28;20049;-47
2023/03/26 06:08:14;;;;;;;18.77;4.55;;;6.30;99.90;;;;;;5033927;28;20410;-45
2023/03/26 06:10:40;;;;;;;20.30;3.60;;;6.40;99.90;;;;;;5032885;28;20036;-50
2023/03/26 06:13:06;;;;;;;24.02;3.90;;;6.40;99.90;;;;;;5033236;28;20049;-45
2023/03/26 06:15:32;;;;;;;16.42;4.05;;;6.40;99.90;;;;;;5034547;28;20052;-44
2023/03/26 06:17:58;;;;;;;26.83;4.75;;;6.40;99.90;;;;;;5030764;28;20530;-37
2023/03/26 06:20:23;;;;;;;17.17;4.00;;;6.40;99.90;;;;;;5030421;28;20081;-48
2023/03/26 06:22:49;;;;;;;22.67;4.45;;;6.40;99.90;;;;;;5032813;28;20050;-42
2023/03/26 06:25:15;;;;;;;22.25;4.53;;;6.40;99.90;;;;;;5031120;28;20501;-41
2023/03/26 06:27:40;;;;;;;21.67;4.35;;;6.50;99.90;;;;;;5038545;28;20485;-47
2023/03/26 06:30:08;;;;;;;20.83;4.30;;;6.50;99.90;;;;;;5037569;28;20052;-44
2023/03/26 06:32:33;;;;;;;15.13;3.65;;;6.60;99.90;;;;;;5027507;28;20107;-43
2023/03/26 06:34:59;;;;;;;20.25;3.90;;;6.60;99.90;;;;;;5038669;28;20665;-39
2023/03/26 06:37:25;;;;;;;25.23;4.00;;;6.60;99.90;;;;;;5023545;28;20489;-43
2023/03/26 06:39:50;;;;;;;20.08;3.60;;;6.60;99.90;;;;;;5037307;28;20044;-50
2023/03/26 06:42:16;;;;;;;23.55;4.45;;;6.70;99.90;;;;;;5037633;28;20739;-47
2023/03/26 06:44:41;;;;;;;16.17;3.22;;;6.70;99.90;;;;;;5019998;28;20082;-49
2023/03/26 06:47:07;;;;;;;24.55;4.75;;;6.70;99.90;;;;;;5038634;28;20049;-41
2023/03/26 06:49:33;;;;;;;17.10;4.75;;;6.80;99.90;;;;;;5035385;28;20053;-46
2023/03/26 06:52:01;;;;;;;16.95;3.88;;;6.80;99.90;;;;;;5025635;28;20575;-44
2023/03/26 06:54:27;;;;;;;19.38;4.10;;;6.80;99.90;;;;;;5026473;28;20391;-43
2023/03/26 06:56:53;;;;;;;19.27;4.40;;;6.80;99.90;;;;;;5030692;28;20054;-42
2023/03/26 06:59:19;;;;;;;18.13;3.70;;;6.80;99.90;;;;;;5030617;28;20049;-49
2023/03/26 07:01:44;;;;;;;25.23;5.82;;;6.80;99.90;;;;;;5031374;28;20045;-46
2023/03/26 07:04:10;;;;;;;18.05;4.15;;;6.90;99.90;;;;;;5012721;28;20470;-48
2023/03/26 07:06:36;;;;;;;19.38;3.88;;;7.00;99.90;;;;;;5020543;28;20061;-47
2023/03/26 07:09:02;;;;;;;15.60;3.47;;;7.00;99.90;;;;;;5037279;28;20092;-47
2023/03/26 07:11:28;;;;;;;19.42;3.83;;;7.10;99.90;;;;;;5036566;28;20120;-43
2023/03/26 07:13:58;;;;;;;20.13;3.55;;;7.20;99.90;;;;;;5037061;28;20085;-45
2023/03/26 07:16:24;;;;;;;17.88;3.60;;;7.30;99.90;;;;;;5037272;28;20052;-48
2023/03/26 07:18:50;;;;;;;17.23;3.13;;;7.40;99.90;;;;;;5036709;28;20079;-39
2023/03/26 07:21:16;;;;;;;18.40;3.65;;;7.40;99.90;;;;;;5036432;28;20091;-41
2023/03/26 07:23:42;;;;;;;18.20;4.90;;;7.60;99.90;;;;;;5038187;28;20156;-43
2023/03/26 07:26:24;;;;;;;17.48;3.38;;;7.60;99.90;;;;;;5038217;28;20110;-39
2023/03/26 07:29:15;;;;;;;19.38;3.85;;;7.70;99.90;;;;;;5034648;28;20096;-40
2023/03/26 07:31:52;;;;;;;17.65;4.38;;;7.70;99.90;;;;;;5031326;28;20049;-46
2023/03/26 07:34:38;;;;;;;14.98;3.42;;;7.80;99.90;;;;;;5025038;28;20045;-43
2023/03/26 07:37:11;;;;;;;18.25;3.83;;;7.90;99.90;;;;;;5033396;28;20091;-49
2023/03/26 07:40:01;;;;;;;15.00;3.53;;;8.00;99.90;;;;;;5025988;28;20049;-44
2023/03/26 07:42:48;;;;;;;13.95;3.05;;;8.10;99.90;;;;;;5024896;28;20107;-42
2023/03/26 07:45:24;;;;;;;17.23;3.88;;;8.30;99.90;;;;;;5037023;28;20095;-50
2023/03/26 07:47:52;;;;;;;14.38;3.00;;;8.60;99.90;;;;;;5037391;28;20052;-42
2023/03/26 07:50:21;;;;;;;22.60;4.45;;;8.80;99.90;;;;;;5035807;28;20048;-38
2023/03/26 07:52:47;;;;;;;20.88;4.43;;;8.90;99.90;;;;;;5037015;28;20048;-48
2023/03/26 07:55:15;;;;;;;16.50;3.35;;;9.10;99.90;;;;;;5037055;28;20080;-39
2023/03/26 07:57:55;;;;;;;17.73;3.55;;;9.20;99.90;;;;;;5035776;28;20049;-42
2023/03/26 08:00:29;;;;;;;22.92;4.20;;;9.20;99.90;;;;;;5036970;28;20056;-42
2023/03/26 08:03:20;;;;;;;20.50;3.63;;;9.30;99.90;;;;;;5037329;28;20087;-44
2023/03/26 08:06:15;;;;;;;17.83;3.65;;;9.20;99.90;;;;;;5032468;28;20044;-50
2023/03/26 08:08:51;;;;;;;16.08;2.78;;;9.20;99.90;;;;;;5025384;28;20048;-48
2023/03/26 08:11:39;;;;;;;15.15;2.97;;;9.10;99.90;;;;;;5035367;28;20886;-48
2023/03/26 08:14:35;;;;;;;14.95;3.30;;;8.90;99.90;;;;;;5034969;28;20053;-52
2023/03/26 08:17:10;;;;;;;15.48;2.97;;;8.90;99.90;;;;;;5036946;28;20053;-42
2023/03/26 08:19:56;;;;;;;22.35;3.88;;;8.80;99.90;;;;;;5036044;28;20537;-44
2023/03/26 08:22:35;;;;;;;14.45;3.83;;;8.90;99.90;;;;;;5021278;28;20081;-49
2023/03/26 08:25:31;;;;;;;17.52;3.70;;;8.90;99.90;;;;;;5035338;28;20210;-54
2023/03/26 08:28:31;;;;;;;14.27;3.28;;;9.00;99.90;;;;;;5028667;28;20132;-46
2023/03/26 08:30:57;;;;;;;21.20;3.85;;;9.20;99.90;;;;;;5028936;28;21022;-45
2023/03/26 08:33:26;;;;;;;21.17;4.63;;;9.30;99.90;;;;;;5034126;28;20137;-41
2023/03/26 08:35:52;;;;;;;15.52;3.83;;;9.30;99.90;;;;;;5029792;28;20061;-47
2023/03/26 08:38:19;;;;;;;20.35;3.85;;;9.30;99.90;;;;;;5028458;28;20442;-46
2023/03/26 08:41:10;;;;;;;15.48;4.22;;;9.40;99.90;;;;;;5034814;28;20041;-47
2023/03/26 08:44:14;;;;;;;16.63;3.15;;;9.60;99.90;;;;;;5031552;28;20045;-47
2023/03/26 08:47:15;;;;;;;13.73;3.47;;;9.60;99.90;;;;;;4999940;28;20441;-49
2023/03/26 08:50:18;;;;;;;18.58;4.00;;;9.40;99.90;;;;;;5008852;28;20459;-50
2023/03/26 08:53:20;;;;;;;18.52;3.42;;;9.40;99.90;;;;;;5011207;28;20037;-46
2023/03/26 08:56:16;;;;;;;17.15;3.70;;;9.40;99.90;;;;;;5004075;28;20056;-49
2023/03/26 08:59:12;;;;;;;12.70;2.85;;;9.40;99.90;;;;;;5000816;28;20515;-45
2023/03/26 09:02:13;;;;;;;21.63;2.85;;;9.30;99.90;;;;;;5012246;28;20059;-45
2023/03/26 09:05:03;;;;;;;14.35;2.97;;;9.30;99.90;;;;;;4985810;28;20141;-52
2023/03/26 09:07:49;;;;;;;9.88;2.55;;;9.20;99.90;;;;;;5012210;28;20360;-43
2023/03/26 09:10:36;;;;;;;17.23;3.20;;;9.20;99.90;;;;;;5011463;28;20552;-45
2023/03/26 09:13:25;;;;;;;14.15;3.00;;;9.10;99.90;;;;;;5005807;28;20508;-43
2023/03/26 09:16:25;;;;;;;16.67;3.35;;;9.10;99.90;;;;;;5010824;28;20053;-48
2023/03/26 09:18:57;;;;;;;10.48;2.92;;;9.00;99.90;;;;;;4997979;28;20060;-49
2023/03/26 09:21:42;;;;;;;16.38;3.00;;;9.10;99.90;;;;;;4994995;28;20061;-44
2023/03/26 09:24:21;;;;;;;13.40;2.92;;;9.10;99.90;;;;;;5018767;28;20061;-46
2023/03/26 09:27:07;;;;;;;12.73;2.72;;;9.00;99.90;;;;;;5023242;28;20559;-44
2023/03/26 09:29:59;;;;;;;11.27;2.70;;;9.10;99.90;;;;;;5023648;28;20160;-45
2023/03/26 09:33:01;;;;;;;16.02;2.83;;;9.00;99.90;;;;;;5025097;28;20131;-43
2023/03/26 09:35:56;;;;;;;15.35;3.38;;;9.30;99.90;;;;;;5011981;28;20148;-47
2023/03/26 09:38:36;;;;;;;12.07;2.83;;;9.20;99.90;;;;;;4952340;28;20350;-45
2023/03/26 09:41:23;;;;;;;18.00;3.47;;;9.40;99.90;;;;;;4944156;28;20058;-41
2023/03/26 09:44:19;;;;;;;11.13;2.65;;;9.40;99.90;;;;;;4953264;28;20055;-50
2023/03/26 09:46:56;;;;;;;17.58;2.92;;;9.40;99.90;;;;;;4939012;28;20053;-47
2023/03/26 09:49:49;;;;;;;15.73;2.75;;;9.50;99.90;;;;;;4940479;28;20090;-39
2023/03/26 09:52:31;;;;;;;14.52;2.80;;;9.50;99.90;;;;;;4953827;28;20160;-44
2023/03/26 09:55:18;;;;;;;17.02;3.08;;;9.40;99.90;;;;;;4937536;28;20419;-42
2023/03/26 09:58:02;;;;;;;16.63;3.92;;;9.50;99.90;;;;;;4944705;28;20526;-49
2023/03/26 10:01:13;;;;;;;21.70;4.00;;;9.30;99.90;;;;;;4953310;28;20051;-45
2023/03/26 10:03:45;;;;;;;14.05;3.20;;;9.50;99.90;;;;;;4922251;29;20047;-45
2023/03/26 10:06:25;;;;;;;12.20;3.25;;;9.50;99.90;;;;;;4917746;29;20058;-50
2023/03/26 10:09:37;;;;;;;10.52;2.95;;;9.60;99.90;;;;;;4921567;29;20084;-42
2023/03/26 10:12:28;;;;;;;20.08;4.13;;;9.60;99.90;;;;;;4914807;29;20067;-41
2023/03/26 10:14:54;;;;;;;20.20;2.90;;;9.80;99.90;;;;;;4898307;29;20093;-48
2023/03/26 10:17:48;;;;;;;15.43;3.85;;;9.70;99.90;;;;;;4897088;29;20142;-41
2023/03/26 10:20:35;;;;;;;13.07;2.90;;;9.80;99.90;;;;;;4895859;29;20582;-49
2023/03/26 10:23:34;;;;;;;13.48;3.17;;;9.60;99.90;;;;;;4899197;29;20066;-47
2023/03/26 10:26:26;;;;;;;19.85;4.22;;;9.70;99.90;;;;;;4877458;29;20159;-38
2023/03/26 10:29:01;;;;;;;21.75;4.68;;;9.70;99.90;;;;;;4875188;29;20061;-51
2023/03/26 10:31:29;;;;;;;14.73;4.15;;;9.70;99.90;;;;;;4876819;29;20498;-48
2023/03/26 10:34:18;;;;;;;15.15;3.30;;;9.60;99.90;;;;;;4888061;29;20055;-42
2023/03/26 10:36:50;;;;;;;11.90;2.58;;;9.60;99.90;;;;;;4877769;29;20561;-50
2023/03/26 10:39:44;;;;;;;17.77;3.38;;;9.50;99.90;;;;;;4861502;29;20072;-47
2023/03/26 10:42:19;;;;;;;14.02;3.00;;;9.70;99.90;;;;;;4857424;29;20059;-46
2023/03/26 10:44:59;;;;;;;11.75;4.22;;;9.50;99.90;;;;;;4898848;29;20064;-54
2023/03/26 10:48:10;;;;;;;13.10;3.15;;;9.50;99.90;;;;;;4898632;29;20060;-39
2023/03/26 10:51:15;;;;;;;16.80;3.20;;;9.30;99.90;;;;;;4913885;29;20055;-42
2023/03/26 10:53:49;;;;;;;13.13;2.95;;;9.20;99.90;;;;;;4899220;29;20364;-43
2023/03/26 10:56:42;;;;;;;12.73;2.63;;;9.20;99.90;;;;;;4897609;29;20499;-38
2023/03/26 10:59:12;;;;;;;11.67;2.90;;;9.30;99.90;;;;;;4897466;29;20052;-43
2023/03/26 11:02:16;;;;;;;16.02;4.10;;;9.30;99.90;;;;;;4898597;29;20288;-46
2023/03/26 11:05:00;;;;;;;16.17;3.25;;;9.30;99.90;;;;;;4983682;28;20489;-49
2023/03/26 11:07:39;;;;;;;13.35;2.55;;;9.30;99.90;;;;;;4989742;28;20820;-37
2023/03/26 11:10:26;;;;;;;13.38;2.90;;;9.50;99.90;;;;;;4967419;28;20050;-41
2023/03/26 11:13:02;;;;;;;12.55;2.95;;;9.50;99.90;;;;;;4989343;28;20620;-48
2023/03/26 11:15:51;;;;;;;11.63;2.88;;;9.40;99.90;;;;;;5035312;28;20157;-38
2023/03/26 11:18:43;;;;;;;13.10;3.40;;;9.40;99.90;;;;;;5036441;28;20124;-50
2023/03/26 11:21:37;;;;;;;10.32;2.90;;;9.60;99.90;;;;;;5016046;28;20820;-50
2023/03/26 11:24:34;;;;;;;12.73;3.17;;;9.70;99.90;;;;;;5013578;28;20107;-46
2023/03/26 11:27:10;;;;;;;16.58;3.42;;;9.70;99.90;;;;;;5011302;28;20061;-39
2023/03/26 11:29:49;;;;;;;10.80;2.92;;;9.70;99.90;;;;;;4993685;28;20064;-42
2023/03/26 11:32:46;;;;;;;14.57;3.38;;;9.70;99.90;;;;;;5004721;28;20049;-42
2023/03/26 11:35:17;;;;;;;12.63;2.90;;;9.60;99.90;;;;;;4952651;28;20055;-40
2023/03/26 11:37:50;;;;;;;13.00;3.50;;;9.20;99.90;;;;;;4951164;28;20125;-38
2023/03/26 11:40:23;;;;;;;12.75;2.15;;;9.20;99.90;;;;;;4933361;28;20047;-44
2023/03/26 11:42:54;;;;;;;19.23;3.27;;;9.30;99.90;;;;;;4952658;28;20085;-38
2023/03/26 11:45:24;;;;;;;12.75;3.20;;;9.30;99.90;;;;;;4946353;28;20821;-47
2023/03/26 11:47:54;;;;;;;14.23;3.00;;;9.30;99.90;;;;;;4951875;28;20094;-50
2023/03/26 11:50:29;;;;;;;9.75;2.25;;;9.00;99.90;;;;;;4951451;28;20062;-50
2023/03/26 11:53:09;;;;;;;15.43;2.10;;;9.00;99.90;;;;;;4950613;28;20054;-48
2023/03/26 11:55:35;;;;;;;11.90;2.40;;;8.90;99.90;;;;;;4946859;28;20563;-46
2023/03/26 11:58:04;;;;;;;10.82;2.75;;;8.90;99.90;;;;;;4950126;28;20099;-41
2023/03/26 12:00:30;;;;;;;14.40;3.40;;;8.90;99.90;;;;;;4945627;28;20515;-47
2023/03/26 12:02:57;;;;;;;13.20;2.88;;;9.00;99.90;;;;;;4954205;28;20417;-40
2023/03/26 12:05:28;;;;;;;11.60;2.20;;;9.00;99.90;;;;;;4951973;28;20532;-38
2023/03/26 12:07:58;;;;;;;10.85;2.38;;;9.20;99.90;;;;;;4952885;28;20042;-44
2023/03/26 12:10:30;;;;;;;12.82;2.83;;;9.20;99.90;;;;;;4937725;28;20292;-45
2023/03/26 12:13:03;;;;;;;9.48;2.38;;;9.10;99.90;;;;;;5021078;28;20992;-44
2023/03/26 12:15:31;;;;;;;10.88;2.63;;;9.10;99.90;;;;;;5018505;28;20049;-40
2023/03/26 12:17:58;;;;;;;14.85;2.40;;;9.00;99.90;;;;;;5020135;28;20056;-48
2023/03/26 12:20:24;;;;;;;11.77;2.50;;;9.00;99.90;;;;;;5018652;28;20057;-45
2023/03/26 12:23:00;;;;;;;6.00;1.73;;;9.00;99.90;;;;;;5035136;28;20126;-39
2023/03/26 12:25:28;;;;;;;9.75;2.38;;;9.20;99.90;;;;;;5034813;28;20064;-43
2023/03/26 12:28:02;;;;;;;11.30;2.88;;;9.40;99.90;;;;;;5034024;28;20080;-41
2023/03/26 12:30:39;;;;;;;13.45;2.75;;;9.50;99.90;;;;;;5033561;28;20044;-44
2023/03/26 12:33:40;;;;;;;11.90;2.72;;;9.60;99.90;;;;;;5010267;28;20049;-47
2023/03/26 12:36:29;;;;;;;18.98;3.88;;;9.70;99.90;;;;;;4992745;28;20200;-40
2023/03/26 12:38:54;;;;;;;16.45;2.75;;;9.50;99.90;;;;;;5011067;28;20061;-42
2023/03/26 12:41:34;;;;;;;11.82;4.00;;;9.00;99.90;;;;;;5012206;28;20670;-46
2023/03/26 12:44:24;;;;;;;12.43;2.63;;;8.90;99.90;;;;;;5012319;28;20567;-40
2023/03/26 12:46:54;;;;;;;16.67;3.97;;;8.70;99.90;;;;;;4995597;28;20656;-44
2023/03/26 12:49:20;;;;;;;11.45;3.22;;;8.60;99.90;;;;;;5010452;28;20049;-45
2023/03/26 12:51:57;;;;;;;11.73;2.60;;;8.80;99.90;;;;;;5011498;28;20126;-44
2023/03/26 12:54:57;;;;;;;11.63;2.60;;;8.90;99.90;;;;;;5013039;28;20050;-45
2023/03/26 12:57:29;;;;;;;12.45;3.58;;;9.00;99.90;;;;;;5011841;28;20045;-48
2023/03/26 13:00:21;;;;;;;10.18;2.97;;;9.10;99.90;;;;;;5010581;28;20057;-47
2023/03/26 13:03:12;;;;;;;10.73;2.60;;;9.10;99.90;;;;;;5011179;28;20435;-48
2023/03/26 13:06:14;;;;;;;11.80;2.70;;;9.10;99.90;;;;;;5012628;28;20487;-42
2023/03/26 13:08:57;;;;;;;11.05;2.38;;;8.90;99.90;;;;;;5011789;28;20061;-51
2023/03/26 13:11:37;;;;;;;16.27;2.72;;;8.80;99.90;;;;;;5017927;28;20126;-39
2023/03/26 13:14:09;;;;;;;15.18;2.88;;;8.80;99.90;;;;;;5034547;28;20055;-43
2023/03/26 13:17:03;;;;;;;8.80;2.50;;;8.90;99.90;;;;;;5033993;28;20053;-50
2023/03/26 13:19:58;;;;;;;;;;;8.80;99.90;;;;;;5034921;28;20044;-42
2023/03/26 13:22:34;;;;;;;11.13;2.10;;;8.60;99.90;;;;;;4998594;28;20005;-42
2023/03/26 13:25:07;;;;;;;9.30;2.38;;;8.60;99.90;;;;;;5001424;28;20072;-44
2023/03/26 13:27:52;;;;;;;12.82;2.60;;;8.70;99.90;;;;;;5007873;28;20599;-39